createdAt,value
2018-12-22T00:00:23.437Z,10.10
2018-12-22T00:02:55.015Z,10.20
2018-12-22T00:05:26.504Z,10.10
2018-12-22T00:07:58.113Z,10.20
2018-12-22T00:10:29.617Z,10.20
2018-12-22T00:13:01.108Z,10.20
2018-12-22T00:15:32.674Z,10.20
2018-12-22T00:18:04.159Z,10.20
2018-12-22T00:20:36.140Z,10.20
2018-12-22T00:23:07.677Z,10.20
2018-12-22T00:25:39.155Z,10.30
2018-12-22T00:28:10.680Z,10.30
2018-12-22T00:30:42.155Z,10.30
2018-12-22T00:33:15.675Z,10.30
2018-12-22T00:35:47.167Z,10.30
2018-12-22T00:38:18.757Z,10.30
2018-12-22T00:40:50.361Z,10.30
2018-12-22T00:43:21.881Z,10.30
2018-12-22T00:45:53.359Z,10.30
2018-12-22T00:48:24.977Z,10.30
2018-12-22T00:50:56.470Z,10.30
2018-12-22T00:53:28.067Z,10.30
2018-12-22T00:55:59.621Z,10.30
2018-12-22T00:58:31.177Z,10.20
2018-12-22T01:01:02.712Z,10.30
2018-12-22T01:03:34.284Z,10.20
2018-12-22T01:06:05.838Z,10.20
2018-12-22T01:08:37.396Z,10.20
2018-12-22T01:11:09.012Z,10.20
2018-12-22T01:13:40.518Z,10.30
2018-12-22T01:16:12.116Z,10.20
2018-12-22T01:18:43.624Z,10.30
2018-12-22T01:21:15.229Z,10.20
2018-12-22T01:23:46.732Z,10.20
2018-12-22T01:26:18.125Z,10.20
2018-12-22T01:28:49.716Z,10.20
2018-12-22T01:31:21.348Z,10.20
2018-12-22T01:33:52.838Z,10.20
2018-12-22T01:36:24.460Z,10.20
2018-12-22T01:38:55.961Z,10.20
2018-12-22T01:41:27.553Z,10.20
2018-12-22T01:43:59.060Z,10.20
2018-12-22T01:46:30.429Z,10.20
2018-12-22T01:49:01.853Z,10.20
2018-12-22T01:51:33.282Z,10.20
2018-12-22T01:54:04.855Z,10.20
2018-12-22T01:56:36.268Z,10.20
2018-12-22T01:59:07.848Z,10.20
2018-12-22T02:01:39.408Z,10.20
2018-12-22T02:04:10.969Z,10.20
2018-12-22T02:06:42.383Z,10.20
2018-12-22T02:09:13.976Z,10.20
2018-12-22T02:11:45.381Z,10.20
2018-12-22T02:14:16.980Z,10.30
2018-12-22T02:16:48.587Z,10.20
2018-12-22T02:19:20.103Z,10.30
2018-12-22T02:21:51.708Z,10.30
2018-12-22T02:24:23.201Z,10.30
2018-12-22T02:26:54.813Z,10.30
2018-12-22T02:29:26.317Z,10.30
2018-12-22T02:31:57.816Z,10.30
2018-12-22T02:34:29.402Z,10.20
2018-12-22T02:37:00.837Z,10.30
2018-12-22T02:39:32.427Z,10.30
2018-12-22T02:42:04.376Z,10.30
2018-12-22T02:44:35.789Z,10.30
2018-12-22T02:47:07.404Z,10.30
2018-12-22T02:49:39.100Z,10.30
2018-12-22T02:52:10.697Z,10.30
2018-12-22T02:54:42.119Z,10.30
2018-12-22T02:57:13.704Z,10.30
2018-12-22T02:59:45.251Z,10.30
2018-12-22T03:02:16.801Z,10.20
2018-12-22T03:04:48.352Z,10.20
2018-12-22T03:07:19.930Z,10.10
2018-12-22T03:09:51.528Z,10.10
2018-12-22T03:12:23.027Z,10.10
2018-12-22T03:14:54.646Z,10.10
2018-12-22T03:17:26.151Z,10.10
2018-12-22T03:19:57.749Z,10.10
2018-12-22T03:22:29.457Z,10.10
2018-12-22T03:25:01.000Z,10.10
2018-12-22T03:27:32.459Z,10.10
2018-12-22T03:30:04.104Z,10.10
2018-12-22T03:32:35.537Z,10.20
2018-12-22T03:35:07.206Z,10.20
2018-12-22T03:37:38.758Z,10.20
2018-12-22T03:40:10.743Z,10.20
2018-12-22T03:42:42.286Z,10.20
2018-12-22T03:45:13.752Z,10.10
2018-12-22T03:47:45.348Z,10.10
2018-12-22T03:50:16.867Z,10.10
2018-12-22T03:52:48.349Z,10.10
2018-12-22T03:55:19.950Z,10.10
2018-12-22T03:57:51.501Z,10.00
2018-12-22T04:00:23.052Z,10.00
2018-12-22T04:02:54.611Z,10.00
2018-12-22T04:05:26.166Z,10.00
2018-12-22T04:07:57.536Z,10.00
2018-12-22T04:10:29.076Z,10.00
2018-12-22T04:13:00.530Z,10.00
2018-12-22T04:15:32.242Z,10.00
2018-12-22T04:18:03.765Z,10.00
2018-12-22T04:20:35.242Z,10.00
2018-12-22T04:23:06.759Z,10.00
2018-12-22T04:25:38.349Z,10.00
2018-12-22T04:28:09.855Z,10.00
2018-12-22T04:30:41.399Z,10.00
2018-12-22T04:33:12.856Z,10.00
2018-12-22T04:35:44.408Z,10.00
2018-12-22T04:38:15.877Z,10.10
2018-12-22T04:40:47.402Z,10.10
2018-12-22T04:43:18.868Z,10.10
2018-12-22T04:45:50.414Z,10.10
2018-12-22T04:48:21.877Z,10.10
2018-12-22T04:50:53.416Z,10.10
2018-12-22T04:53:24.840Z,10.10
2018-12-22T04:55:56.448Z,10.10
2018-12-22T04:58:28.097Z,10.10
2018-12-22T05:00:59.733Z,10.00
2018-12-22T05:03:31.149Z,10.00
2018-12-22T05:06:02.739Z,10.00
2018-12-22T05:08:34.204Z,10.00
2018-12-22T05:11:05.840Z,10.00
2018-12-22T05:13:37.253Z,9.90
2018-12-22T05:16:09.016Z,9.90
2018-12-22T05:18:40.670Z,9.90
2018-12-22T05:21:12.175Z,9.90
2018-12-22T05:23:43.878Z,9.80
2018-12-22T05:26:15.391Z,9.80
2018-12-22T05:28:46.987Z,9.80
2018-12-22T05:31:18.494Z,9.80
2018-12-22T05:33:49.894Z,9.70
2018-12-22T05:36:21.476Z,9.80
2018-12-22T05:38:53.098Z,9.70
2018-12-22T05:41:24.590Z,9.70
2018-12-22T05:43:56.214Z,9.70
2018-12-22T05:46:27.721Z,9.70
2018-12-22T05:48:59.314Z,9.60
2018-12-22T05:51:30.813Z,9.60
2018-12-22T05:54:02.424Z,9.60
2018-12-22T05:56:33.916Z,9.60
2018-12-22T05:59:05.570Z,9.60
2018-12-22T06:01:37.295Z,9.60
2018-12-22T06:04:08.885Z,9.60
2018-12-22T06:06:40.354Z,9.60
2018-12-22T06:09:11.894Z,9.50
2018-12-22T06:11:43.356Z,9.60
2018-12-22T06:14:14.894Z,9.60
2018-12-22T06:16:46.372Z,9.50
2018-12-22T06:19:17.902Z,9.60
2018-12-22T06:21:49.363Z,9.50
2018-12-22T06:24:21.008Z,9.60
2018-12-22T06:26:52.463Z,9.60
2018-12-22T06:29:24.079Z,9.60
2018-12-22T06:31:55.592Z,9.70
2018-12-22T06:34:27.121Z,9.60
2018-12-22T06:36:58.594Z,9.70
2018-12-22T06:39:30.175Z,9.70
2018-12-22T06:42:01.596Z,9.70
2018-12-22T06:44:33.199Z,9.70
2018-12-22T06:47:04.701Z,9.70
2018-12-22T06:49:36.303Z,9.70
2018-12-22T06:52:07.806Z,9.60
2018-12-22T06:54:39.451Z,9.70
2018-12-22T06:57:10.994Z,9.70
2018-12-22T06:59:42.728Z,9.70
2018-12-22T07:02:14.232Z,9.70
2018-12-22T07:04:45.830Z,9.70
2018-12-22T07:07:17.347Z,9.70
2018-12-22T07:09:48.880Z,9.70
2018-12-22T07:12:20.344Z,9.70
2018-12-22T07:14:51.875Z,9.70
2018-12-22T07:17:23.352Z,9.70
2018-12-22T07:19:54.895Z,9.70
2018-12-22T07:22:26.398Z,9.70
2018-12-22T07:24:58.185Z,9.60
2018-12-22T07:27:29.616Z,9.70
2018-12-22T07:30:01.208Z,9.60
2018-12-22T07:32:32.609Z,9.70
2018-12-22T07:35:04.170Z,9.60
2018-12-22T07:37:35.674Z,9.60
2018-12-22T07:40:07.420Z,9.60
2018-12-22T07:42:39.522Z,9.60
2018-12-22T07:45:11.187Z,9.60
2018-12-22T07:47:42.688Z,9.60
2018-12-22T07:50:14.244Z,9.60
2018-12-22T07:52:51.623Z,9.60
2018-12-22T07:55:19.468Z,9.60
2018-12-22T07:57:50.963Z,9.70
2018-12-22T08:00:22.471Z,9.70
2018-12-22T08:02:53.982Z,9.70
2018-12-22T08:05:25.581Z,9.70
2018-12-22T08:07:56.986Z,9.70
2018-12-22T08:10:28.586Z,9.70
2018-12-22T08:13:00.089Z,9.80
2018-12-22T08:15:31.497Z,9.70
2018-12-22T08:18:02.991Z,9.70
2018-12-22T08:20:34.533Z,9.70
2018-12-22T08:23:06.086Z,9.70
2018-12-22T08:25:37.504Z,9.70
2018-12-22T08:28:09.094Z,9.70
2018-12-22T08:30:43.632Z,9.80
2018-12-22T08:33:14.072Z,9.80
2018-12-22T08:35:45.703Z,9.80
2018-12-22T08:38:17.128Z,9.80
2018-12-22T08:40:48.716Z,9.90
2018-12-22T08:43:21.083Z,9.90
2018-12-22T08:45:52.631Z,9.90
2018-12-22T08:48:24.193Z,10.00
2018-12-22T08:50:55.743Z,9.90
2018-12-22T08:53:27.296Z,9.90
2018-12-22T08:55:58.859Z,9.90
2018-12-22T08:58:30.397Z,9.90
2018-12-22T09:01:01.972Z,9.90
2018-12-22T09:03:33.418Z,9.90
2018-12-22T09:06:05.023Z,9.90
2018-12-22T09:08:36.516Z,9.80
2018-12-22T09:11:08.131Z,9.90
2018-12-22T09:13:39.643Z,9.90
2018-12-22T09:16:11.240Z,9.90
2018-12-22T09:18:42.752Z,10.00
2018-12-22T09:21:14.290Z,10.00
2018-12-22T09:23:45.974Z,10.10
2018-12-22T09:26:17.714Z,10.10
2018-12-22T09:28:49.217Z,10.20
2018-12-22T09:31:20.821Z,10.20
2018-12-22T09:33:52.430Z,10.20
2018-12-22T09:36:23.943Z,10.30
2018-12-22T09:38:55.735Z,10.30
2018-12-22T09:41:27.252Z,10.30
2018-12-22T09:43:58.852Z,10.40
2018-12-22T09:46:30.347Z,10.40
2018-12-22T09:49:01.947Z,10.40
2018-12-22T09:51:33.457Z,10.40
2018-12-22T09:54:05.052Z,10.40
2018-12-22T09:56:36.553Z,10.40
2018-12-22T09:59:08.183Z,10.40
2018-12-22T10:01:39.681Z,10.30
2018-12-22T10:04:11.960Z,10.30
2018-12-22T10:06:43.553Z,10.30
2018-12-22T10:09:15.058Z,10.30
2018-12-22T10:11:46.590Z,10.30
2018-12-22T10:14:18.056Z,10.30
2018-12-22T10:16:49.604Z,10.30
2018-12-22T10:19:21.057Z,10.30
2018-12-22T10:21:52.664Z,10.30
2018-12-22T10:24:24.177Z,10.30
2018-12-22T10:26:55.778Z,10.30
2018-12-22T10:29:27.280Z,10.30
2018-12-22T10:31:58.881Z,10.30
2018-12-22T10:34:30.460Z,10.20
2018-12-22T10:37:02.026Z,10.20
2018-12-22T10:39:34.268Z,10.20
2018-12-22T10:42:05.772Z,10.20
2018-12-22T10:44:37.305Z,10.20
2018-12-22T10:47:09.224Z,10.40
2018-12-22T10:49:40.823Z,10.60
2018-12-22T10:52:12.438Z,10.80
2018-12-22T10:54:43.956Z,11.00
2018-12-22T10:57:15.382Z,11.00
2018-12-22T10:59:46.945Z,11.00
2018-12-22T11:02:18.358Z,10.90
2018-12-22T11:04:49.938Z,10.80
2018-12-22T11:07:21.564Z,10.80
2018-12-22T11:09:53.576Z,10.80
2018-12-22T11:12:25.115Z,10.70
2018-12-22T11:14:56.738Z,10.60
2018-12-22T11:17:28.324Z,10.60
2018-12-22T11:19:59.734Z,10.60
2018-12-22T11:22:31.334Z,10.60
2018-12-22T11:25:05.010Z,10.60
2018-12-22T11:27:36.561Z,10.60
2018-12-22T11:30:13.524Z,10.60
2018-12-22T11:32:45.042Z,10.70
2018-12-22T11:35:16.636Z,10.70
2018-12-22T11:37:48.140Z,10.70
2018-12-22T11:40:19.680Z,10.80
2018-12-22T11:42:51.165Z,10.80
2018-12-22T11:45:22.747Z,10.80
2018-12-22T11:48:15.454Z,10.80
2018-12-22T11:50:46.992Z,10.80
2018-12-22T11:53:18.545Z,10.90
2018-12-22T11:55:49.959Z,10.90
2018-12-22T11:58:21.550Z,10.90
2018-12-22T12:00:52.995Z,10.80
2018-12-22T12:03:24.553Z,10.80
2018-12-22T12:05:56.177Z,10.70
2018-12-22T12:08:27.673Z,10.60
2018-12-22T12:11:00.514Z,10.40
2018-12-22T12:13:32.120Z,10.40
2018-12-22T12:16:21.463Z,10.30
2018-12-22T12:19:31.635Z,10.20
2018-12-22T12:22:03.066Z,10.10
2018-12-22T12:24:34.624Z,10.00
2018-12-22T12:27:06.421Z,10.00
2018-12-22T12:29:38.056Z,9.90
2018-12-22T12:32:09.719Z,9.40
2018-12-22T12:34:41.163Z,9.10
2018-12-22T12:37:12.703Z,8.80
2018-12-22T12:39:44.331Z,8.70
2018-12-22T12:42:16.314Z,8.60
2018-12-22T12:44:47.914Z,8.60
2018-12-22T12:47:19.523Z,8.60
2018-12-22T12:49:51.008Z,8.60
2018-12-22T12:52:22.614Z,8.60
2018-12-22T12:54:54.130Z,8.70
2018-12-22T12:57:27.109Z,8.80
2018-12-22T12:59:58.762Z,8.90
2018-12-22T13:02:30.163Z,9.00
2018-12-22T13:05:01.752Z,9.20
2018-12-22T13:07:33.170Z,9.40
2018-12-22T13:10:04.998Z,9.70
2018-12-22T13:12:58.282Z,9.80
2018-12-22T13:15:29.642Z,9.80
2018-12-22T13:18:01.229Z,9.70
2018-12-22T13:20:32.783Z,9.60
2018-12-22T13:23:04.379Z,9.50
2018-12-22T13:25:35.751Z,9.40
2018-12-22T13:28:07.351Z,9.30
2018-12-22T13:30:38.759Z,9.40
2018-12-22T13:33:10.617Z,9.50
2018-12-22T13:35:42.279Z,9.50
2018-12-22T13:38:13.765Z,9.50
2018-12-22T13:40:45.525Z,9.50
2018-12-22T13:43:16.994Z,9.40
2018-12-22T13:45:48.551Z,9.40
2018-12-22T13:48:20.302Z,9.30
2018-12-22T13:50:52.162Z,9.10
2018-12-22T13:53:23.875Z,9.10
2018-12-22T13:55:55.375Z,9.10
2018-12-22T13:58:28.210Z,9.00
2018-12-22T14:00:59.765Z,9.00
2018-12-22T14:03:37.117Z,8.90
2018-12-22T14:06:17.505Z,8.90
2018-12-22T14:08:49.013Z,8.90
2018-12-22T14:11:20.614Z,8.80
2018-12-22T14:13:52.119Z,8.80
2018-12-22T14:16:40.923Z,8.80
2018-12-22T14:19:14.163Z,8.80
2018-12-22T14:21:45.713Z,8.70
2018-12-22T14:24:53.220Z,8.80
2018-12-22T14:27:24.655Z,8.90
2018-12-22T14:29:56.218Z,8.90
2018-12-22T14:32:27.842Z,9.00
2018-12-22T14:35:53.765Z,9.10
2018-12-22T14:38:25.308Z,9.00
2018-12-22T14:40:56.810Z,9.00
2018-12-22T14:43:28.353Z,9.00
2018-12-22T14:45:59.990Z,8.90
2018-12-22T14:48:31.492Z,8.90
2018-12-22T14:51:03.121Z,8.90
2018-12-22T14:53:34.597Z,8.90
2018-12-22T14:56:06.454Z,8.80
2018-12-22T14:58:38.817Z,8.80
2018-12-22T15:01:10.433Z,8.80
2018-12-22T15:03:41.930Z,8.80
2018-12-22T15:06:13.334Z,8.80
2018-12-22T15:08:44.919Z,8.70
2018-12-22T15:11:16.479Z,8.70
2018-12-22T15:13:48.028Z,8.60
2018-12-22T15:16:19.450Z,8.60
2018-12-22T15:18:51.037Z,8.50
2018-12-22T15:21:22.664Z,8.60
2018-12-22T15:23:54.154Z,8.60
2018-12-22T15:26:25.759Z,8.60
2018-12-22T15:28:57.270Z,8.60
2018-12-22T15:31:28.666Z,8.50
2018-12-22T15:34:00.271Z,8.50
2018-12-22T15:36:31.929Z,8.40
2018-12-22T15:39:04.258Z,8.30
2018-12-22T15:41:37.563Z,8.30
2018-12-22T15:44:09.226Z,8.30
2018-12-22T15:46:40.852Z,8.20
2018-12-22T15:49:13.352Z,8.20
2018-12-22T15:51:44.826Z,8.10
2018-12-22T15:54:16.378Z,8.10
2018-12-22T15:56:47.795Z,8.10
2018-12-22T15:59:19.371Z,8.00
2018-12-22T16:01:50.800Z,8.10
2018-12-22T16:04:22.375Z,8.10
2018-12-22T16:06:54.003Z,8.10
2018-12-22T16:09:25.484Z,8.10
2018-12-22T16:11:57.149Z,8.00
2018-12-22T16:14:28.575Z,8.00
2018-12-22T16:17:00.157Z,8.00
2018-12-22T16:19:31.562Z,7.90
2018-12-22T16:22:03.162Z,7.90
2018-12-22T16:24:34.571Z,7.90
2018-12-22T16:27:06.167Z,7.90
2018-12-22T16:29:43.040Z,7.90
2018-12-22T16:32:14.456Z,7.90
2018-12-22T16:34:46.051Z,7.80
2018-12-22T16:37:17.604Z,7.80
2018-12-22T16:39:49.143Z,7.80
2018-12-22T16:42:20.769Z,7.70
2018-12-22T16:44:52.284Z,7.80
2018-12-22T16:47:23.877Z,7.70
2018-12-22T16:49:55.285Z,7.70
2018-12-22T16:52:26.683Z,7.70
2018-12-22T16:54:58.278Z,7.70
2018-12-22T16:57:29.891Z,7.70
2018-12-22T17:00:01.398Z,7.70
2018-12-22T17:02:54.012Z,7.70
2018-12-22T17:05:25.542Z,7.70
2018-12-22T17:07:56.913Z,7.70
2018-12-22T17:10:34.587Z,7.70
2018-12-22T17:13:06.190Z,7.70
2018-12-22T17:15:39.466Z,7.70
2018-12-22T17:18:11.099Z,7.70
2018-12-22T17:20:42.618Z,7.60
2018-12-22T17:23:37.034Z,7.70
2018-12-22T17:26:10.361Z,7.70
2018-12-22T17:28:41.936Z,7.70
2018-12-22T17:31:13.379Z,7.60
2018-12-22T17:33:44.932Z,7.60
2018-12-22T17:36:16.367Z,7.60
2018-12-22T17:38:48.042Z,7.60
2018-12-22T17:41:19.620Z,7.60
2018-12-22T17:43:51.477Z,7.60
2018-12-22T17:46:23.218Z,7.60
2018-12-22T17:48:54.674Z,7.60
2018-12-22T17:51:26.235Z,7.60
2018-12-22T17:53:57.687Z,7.60
2018-12-22T17:56:29.198Z,7.60
2018-12-22T17:59:00.693Z,7.60
2018-12-22T18:01:32.308Z,7.60
2018-12-22T18:04:03.798Z,7.60
2018-12-22T18:06:35.398Z,7.60
2018-12-22T18:09:08.096Z,7.60
2018-12-22T18:11:39.539Z,7.60
2018-12-22T18:14:11.127Z,7.60
2018-12-22T18:16:42.541Z,7.60
2018-12-22T18:19:14.130Z,7.60
2018-12-22T18:21:45.547Z,7.60
2018-12-22T18:24:17.127Z,7.60
2018-12-22T18:26:48.756Z,7.60
2018-12-22T18:29:20.272Z,7.60
2018-12-22T18:31:51.865Z,7.60
2018-12-22T18:34:23.383Z,7.60
2018-12-22T18:36:54.969Z,7.60
2018-12-22T18:39:27.504Z,7.60
2018-12-22T18:41:58.954Z,7.60
2018-12-22T18:44:30.547Z,7.60
2018-12-22T18:47:02.053Z,7.60
2018-12-22T18:49:33.806Z,7.50
2018-12-22T18:52:05.390Z,7.60
2018-12-22T18:54:37.035Z,7.60
2018-12-22T18:57:08.711Z,7.50
2018-12-22T18:59:40.318Z,7.60
2018-12-22T19:02:11.945Z,7.60
2018-12-22T19:04:43.453Z,7.60
2018-12-22T19:07:14.850Z,7.50
2018-12-22T19:09:49.266Z,7.50
2018-12-22T19:12:21.124Z,7.60
2018-12-22T19:14:54.624Z,7.60
2018-12-22T19:17:26.131Z,7.60
2018-12-22T19:19:57.729Z,7.60
2018-12-22T19:22:29.217Z,7.60
2018-12-22T19:25:00.837Z,7.60
2018-12-22T19:27:32.332Z,7.60
2018-12-22T19:30:03.964Z,7.60
2018-12-22T19:32:35.446Z,7.60
2018-12-22T19:35:07.435Z,7.60
2018-12-22T19:37:38.827Z,7.60
2018-12-22T19:40:10.452Z,7.60
2018-12-22T19:42:41.818Z,7.60
2018-12-22T19:45:13.563Z,7.70
2018-12-22T19:47:44.935Z,7.60
2018-12-22T19:50:16.515Z,7.70
2018-12-22T19:52:48.141Z,7.60
2018-12-22T19:55:19.644Z,7.70
2018-12-22T19:57:51.248Z,7.70
2018-12-22T20:00:22.746Z,7.70
2018-12-22T20:02:54.359Z,7.70
2018-12-22T20:05:25.865Z,7.70
2018-12-22T20:07:57.464Z,7.70
2018-12-22T20:10:28.969Z,7.70
2018-12-22T20:13:00.471Z,7.70
2018-12-22T20:15:32.063Z,7.70
2018-12-22T20:18:03.621Z,7.70
2018-12-22T20:20:35.062Z,7.80
2018-12-22T20:23:06.690Z,7.70
2018-12-22T20:25:38.187Z,7.80
2018-12-22T20:28:09.792Z,7.80
2018-12-22T20:30:41.301Z,7.70
2018-12-22T20:33:12.907Z,7.70
2018-12-22T20:35:44.394Z,7.70
2018-12-22T20:38:15.947Z,7.70
2018-12-22T20:40:47.497Z,7.80
2018-12-22T20:43:19.109Z,7.80
2018-12-22T20:45:50.597Z,7.80
2018-12-22T20:48:22.023Z,7.70
2018-12-22T20:50:53.608Z,7.80
2018-12-22T20:53:25.083Z,7.80
2018-12-22T20:55:56.822Z,7.80
2018-12-22T20:58:28.389Z,7.90
2018-12-22T21:00:59.932Z,7.80
2018-12-22T21:03:42.098Z,7.80
2018-12-22T21:06:20.626Z,7.80
2018-12-22T21:08:52.191Z,7.70
2018-12-22T21:11:23.638Z,7.70
2018-12-22T21:13:55.220Z,7.70
2018-12-22T21:16:26.767Z,7.70
2018-12-22T21:18:58.314Z,7.60
2018-12-22T21:21:29.830Z,7.70
2018-12-22T21:24:01.427Z,7.70
2018-12-22T21:26:32.842Z,7.80
2018-12-22T21:29:04.464Z,7.80
2018-12-22T21:31:35.947Z,7.80
2018-12-22T21:34:07.450Z,7.90
2018-12-22T21:36:39.051Z,7.80
2018-12-22T21:39:10.575Z,7.90
2018-12-22T21:41:42.155Z,7.90
2018-12-22T21:44:13.566Z,7.90
2018-12-22T21:46:45.106Z,7.90
2018-12-22T21:49:16.648Z,7.90
2018-12-22T21:51:48.096Z,7.90
2018-12-22T21:54:19.573Z,7.90
2018-12-22T21:56:50.980Z,7.90
2018-12-22T21:59:22.567Z,7.90
2018-12-22T22:01:55.827Z,7.90
2018-12-22T22:04:27.310Z,7.90
2018-12-22T22:06:58.862Z,7.90
2018-12-22T22:09:30.329Z,7.90
2018-12-22T22:12:01.977Z,7.90
2018-12-22T22:14:33.380Z,7.90
2018-12-22T22:17:04.904Z,7.90
2018-12-22T22:19:36.347Z,7.90
2018-12-22T22:22:07.887Z,8.00
2018-12-22T22:24:39.354Z,8.00
2018-12-22T22:27:11.000Z,8.00
2018-12-22T22:29:42.460Z,8.00
2018-12-22T22:32:13.987Z,8.10
2018-12-22T22:34:45.785Z,8.00
2018-12-22T22:37:17.503Z,8.00
2018-12-22T22:39:49.131Z,8.00
2018-12-22T22:42:20.633Z,7.90
2018-12-22T22:44:52.235Z,7.90
2018-12-22T22:47:23.637Z,7.80
2018-12-22T22:49:55.239Z,7.80
2018-12-22T22:52:26.746Z,7.80
2018-12-22T22:54:58.447Z,7.70
2018-12-22T22:57:30.161Z,7.70
2018-12-22T23:00:01.813Z,7.60
2018-12-22T23:02:33.378Z,7.60
2018-12-22T23:05:04.976Z,7.60
2018-12-22T23:07:36.777Z,7.60
2018-12-22T23:10:08.844Z,7.60
2018-12-22T23:12:40.391Z,7.60
2018-12-22T23:15:11.949Z,7.60
2018-12-22T23:17:43.504Z,7.60
2018-12-22T23:20:14.967Z,7.60
2018-12-22T23:22:46.504Z,7.50
2018-12-22T23:25:17.968Z,7.50
2018-12-22T23:27:49.523Z,7.60
2018-12-22T23:30:20.982Z,7.50
2018-12-22T23:32:52.564Z,7.50
2018-12-22T23:35:23.986Z,7.50
2018-12-22T23:37:55.578Z,7.50
2018-12-22T23:40:26.979Z,7.40
2018-12-22T23:42:58.592Z,7.40
2018-12-22T23:45:30.104Z,7.40
2018-12-22T23:48:01.706Z,7.30
2018-12-22T23:50:33.190Z,7.40
2018-12-22T23:53:04.808Z,7.30
2018-12-22T23:55:36.311Z,7.30
2018-12-22T23:58:07.914Z,7.30
